Macon, Missouri
Current Conditions -  °F | °C
As of 8:55 PM on Sunday 23 Nov 2014 (Local Time) from KIRK Reporting Station
Haze Haze  
Wind Chill: 40°   Ceiling: 600
Heat Index: 46°   Visibility: 2.5mi
Dew Point: 45°   Wind: 13mph
Humidity: 96%   Direction: 320°NW
Pressure: 29.29"   Gusts: 22mph
Location:  39.74°N, 92.46°W
Report Text: KIRK 240255Z AUTO 32011G19KT 2 1/2SM BR OVC006 08/07 A2929 RMK AO2 PK WND 34026/0221 SLP923 P0001 60002 T00780072 52005
Loading
Personal Weather Stations






























Interactive Weather Map New forecast layout! Learn more

10-Day Weather Forecast

Advertisements
Track Severe Weather on mobile